createdAt,value
2022-09-24T00:00:23.452Z,12.59
2022-09-24T00:01:23.483Z,12.55
2022-09-24T00:02:23.534Z,12.55
2022-09-24T00:03:23.494Z,12.55
2022-09-24T00:04:23.750Z,12.54
2022-09-24T00:05:23.395Z,12.55
2022-09-24T00:06:23.385Z,12.54
2022-09-24T00:07:23.377Z,12.54
2022-09-24T00:08:23.412Z,12.50
2022-09-24T00:09:23.360Z,12.51
2022-09-24T00:10:23.344Z,12.53
2022-09-24T00:11:23.305Z,12.51
2022-09-24T00:12:23.316Z,12.47
2022-09-24T00:13:23.343Z,12.47
2022-09-24T00:14:23.298Z,12.46
2022-09-24T00:15:23.285Z,12.44
2022-09-24T00:16:23.372Z,12.47
2022-09-24T00:17:23.266Z,12.44
2022-09-24T00:18:23.247Z,12.51
2022-09-24T00:19:23.288Z,12.51
2022-09-24T00:20:23.228Z,12.53
2022-09-24T00:21:23.218Z,12.54
2022-09-24T00:22:23.208Z,12.50
2022-09-24T00:23:23.199Z,12.48
2022-09-24T00:24:23.177Z,12.50
2022-09-24T00:25:23.216Z,12.50
2022-09-24T00:26:23.153Z,12.47
2022-09-24T00:27:23.150Z,12.50
2022-09-24T00:28:23.138Z,12.44
2022-09-24T00:29:23.130Z,12.44
2022-09-24T00:30:23.108Z,12.41
2022-09-24T00:31:23.198Z,12.46
2022-09-24T00:32:23.099Z,12.46
2022-09-24T00:33:23.079Z,12.44
2022-09-24T00:34:23.068Z,12.46
2022-09-24T00:35:23.060Z,12.46
2022-09-24T00:36:23.089Z,12.47
2022-09-24T00:37:23.041Z,12.47
2022-09-24T00:38:23.034Z,12.46
2022-09-24T00:39:23.020Z,12.47
2022-09-24T00:40:23.048Z,12.43
2022-09-24T00:41:23.005Z,12.43
2022-09-24T00:42:23.041Z,12.41
2022-09-24T00:43:22.979Z,12.40
2022-09-24T00:44:22.962Z,12.38
2022-09-24T00:45:22.942Z,12.38
2022-09-24T00:46:22.985Z,12.40
2022-09-24T00:47:22.932Z,12.38
2022-09-24T00:48:22.942Z,12.40
2022-09-24T00:49:22.915Z,12.38
2022-09-24T00:50:22.917Z,12.40
2022-09-24T00:51:22.885Z,12.40
2022-09-24T00:52:22.884Z,12.36
2022-09-24T00:53:22.905Z,12.40
2022-09-24T00:54:22.850Z,12.40
2022-09-24T00:55:22.835Z,12.41
2022-09-24T00:56:22.835Z,12.41
2022-09-24T00:57:22.824Z,12.41
2022-09-24T00:58:22.846Z,12.40
2022-09-24T00:59:22.805Z,12.43
2022-09-24T01:00:22.793Z,12.41
2022-09-24T01:01:22.832Z,12.44
2022-09-24T01:02:22.893Z,12.43
2022-09-24T01:03:22.787Z,12.38
2022-09-24T01:04:22.787Z,12.36
2022-09-24T01:05:22.738Z,12.38
2022-09-24T01:06:22.717Z,12.35
2022-09-24T01:07:22.721Z,12.35
2022-09-24T01:08:22.717Z,12.35
2022-09-24T01:09:22.707Z,12.36
2022-09-24T01:10:22.681Z,12.38
2022-09-24T01:11:22.667Z,12.40
2022-09-24T01:12:22.659Z,12.38
2022-09-24T01:13:22.657Z,12.38
2022-09-24T01:14:22.687Z,12.36
2022-09-24T01:15:22.638Z,12.36
2022-09-24T01:16:22.675Z,12.33
2022-09-24T01:17:22.610Z,12.35
2022-09-24T01:18:22.602Z,12.33
2022-09-24T01:19:22.611Z,12.32
2022-09-24T01:20:22.581Z,12.32
2022-09-24T01:21:22.563Z,12.32
2022-09-24T01:22:22.569Z,12.32
2022-09-24T01:23:22.543Z,12.32
2022-09-24T01:24:22.567Z,12.32
2022-09-24T01:25:22.553Z,12.38
2022-09-24T01:26:22.512Z,12.35
2022-09-24T01:27:22.497Z,12.36
2022-09-24T01:28:22.495Z,12.38
2022-09-24T01:29:22.483Z,12.36
2022-09-24T01:30:22.475Z,12.36
2022-09-24T01:31:22.602Z,12.38
2022-09-24T01:32:22.514Z,12.36
2022-09-24T01:33:22.450Z,12.36
2022-09-24T01:34:22.429Z,12.38
2022-09-24T01:35:22.442Z,12.38
2022-09-24T01:36:22.405Z,12.30
2022-09-24T01:37:22.387Z,12.36
2022-09-24T01:38:22.385Z,12.36
2022-09-24T01:39:22.387Z,12.29
2022-09-24T01:40:22.594Z,12.29
2022-09-24T01:41:22.346Z,12.33
2022-09-24T01:42:22.332Z,12.32
2022-09-24T01:43:22.327Z,12.26
2022-09-24T01:44:22.320Z,12.29
2022-09-24T01:45:22.327Z,12.33
2022-09-24T01:46:22.374Z,12.35
2022-09-24T01:47:22.278Z,12.36
2022-09-24T01:48:22.271Z,12.35
2022-09-24T01:49:22.252Z,12.32
2022-09-24T01:50:22.537Z,12.33
2022-09-24T01:51:22.236Z,12.30
2022-09-24T01:52:22.225Z,12.30
2022-09-24T01:53:22.221Z,12.32
2022-09-24T01:54:22.209Z,12.32
2022-09-24T01:55:22.190Z,12.33
2022-09-24T01:56:22.230Z,12.33
2022-09-24T01:57:22.178Z,12.33
2022-09-24T01:58:22.172Z,12.32
2022-09-24T01:59:22.163Z,12.35
2022-09-24T02:00:22.140Z,12.35
2022-09-24T02:01:22.313Z,12.38
2022-09-24T02:02:22.182Z,12.38
2022-09-24T02:03:22.111Z,12.40
2022-09-24T02:04:22.093Z,12.40
2022-09-24T02:05:22.097Z,12.41
2022-09-24T02:06:22.102Z,12.43
2022-09-24T02:07:22.081Z,12.38
2022-09-24T02:08:22.056Z,12.38
2022-09-24T02:09:22.039Z,12.33
2022-09-24T02:10:22.033Z,12.35
2022-09-24T02:11:22.144Z,12.35
2022-09-24T02:12:22.025Z,12.26
2022-09-24T02:13:21.994Z,12.28
2022-09-24T02:14:21.986Z,12.28
2022-09-24T02:15:21.966Z,12.28
2022-09-24T02:16:22.047Z,12.28
2022-09-24T02:17:21.946Z,12.28
2022-09-24T02:18:21.945Z,12.30
2022-09-24T02:19:21.926Z,12.29
2022-09-24T02:20:21.931Z,12.26
2022-09-24T02:21:21.907Z,12.28
2022-09-24T02:22:21.936Z,12.23
2022-09-24T02:23:21.888Z,12.21
2022-09-24T02:24:21.868Z,12.22
2022-09-24T02:25:21.868Z,12.23
2022-09-24T02:26:21.869Z,12.22
2022-09-24T02:27:21.839Z,12.23
2022-09-24T02:28:21.958Z,12.23
2022-09-24T02:29:21.838Z,12.23
2022-09-24T02:30:21.812Z,12.23
2022-09-24T02:31:21.857Z,12.22
2022-09-24T02:32:21.791Z,12.23
2022-09-24T02:33:21.779Z,12.22
2022-09-24T02:34:21.816Z,12.23
2022-09-24T02:35:21.751Z,12.23
2022-09-24T02:36:21.740Z,12.22
2022-09-24T02:37:21.739Z,12.18
2022-09-24T02:38:21.737Z,12.21
2022-09-24T02:39:21.712Z,12.18
2022-09-24T02:40:21.781Z,12.21
2022-09-24T02:41:21.694Z,12.21
2022-09-24T02:42:21.674Z,12.21
2022-09-24T02:43:21.692Z,12.22
2022-09-24T02:44:21.650Z,12.22
2022-09-24T02:45:21.656Z,12.23
2022-09-24T02:46:21.688Z,12.23
2022-09-24T02:47:21.655Z,12.25
2022-09-24T02:48:21.612Z,12.22
2022-09-24T02:49:21.601Z,12.23
2022-09-24T02:50:21.593Z,12.28
2022-09-24T02:51:21.586Z,12.26
2022-09-24T02:52:21.588Z,12.28
2022-09-24T02:53:21.565Z,12.28
2022-09-24T02:54:21.541Z,12.29
2022-09-24T02:55:21.537Z,12.28
2022-09-24T02:56:21.533Z,12.25
2022-09-24T02:57:21.544Z,12.25
2022-09-24T02:58:21.535Z,12.23
2022-09-24T02:59:21.475Z,12.23
2022-09-24T03:00:21.486Z,12.26
2022-09-24T03:01:21.513Z,12.23
2022-09-24T03:02:21.539Z,12.25
2022-09-24T03:03:21.473Z,12.26
2022-09-24T03:04:21.436Z,12.23
2022-09-24T03:05:21.416Z,12.22
2022-09-24T03:06:21.424Z,12.18
2022-09-24T03:07:21.398Z,12.22
2022-09-24T03:08:21.408Z,12.23
2022-09-24T03:09:21.376Z,12.22
2022-09-24T03:10:21.368Z,12.23
2022-09-24T03:11:21.352Z,12.25
2022-09-24T03:12:21.348Z,12.28
2022-09-24T03:13:21.368Z,12.23
2022-09-24T03:14:21.348Z,12.23
2022-09-24T03:15:21.320Z,12.25
2022-09-24T03:16:21.349Z,12.28
2022-09-24T03:17:21.300Z,12.29
2022-09-24T03:18:21.308Z,12.25
2022-09-24T03:19:21.271Z,12.30
2022-09-24T03:20:21.263Z,12.29
2022-09-24T03:21:21.262Z,12.30
2022-09-24T03:22:21.231Z,12.30
2022-09-24T03:23:21.269Z,12.26
2022-09-24T03:24:21.207Z,12.25
2022-09-24T03:25:21.213Z,12.23
2022-09-24T03:26:21.194Z,12.28
2022-09-24T03:27:21.182Z,12.30
2022-09-24T03:28:21.183Z,12.26
2022-09-24T03:29:21.192Z,12.28
2022-09-24T03:30:21.144Z,12.26
2022-09-24T03:31:21.165Z,12.28
2022-09-24T03:32:21.123Z,12.26
2022-09-24T03:33:21.133Z,12.23
2022-09-24T03:34:21.134Z,12.28
2022-09-24T03:35:21.096Z,12.22
2022-09-24T03:36:21.084Z,12.22
2022-09-24T03:37:21.076Z,12.22
2022-09-24T03:38:21.065Z,12.23
2022-09-24T03:39:21.057Z,12.21
2022-09-24T03:40:21.119Z,12.22
2022-09-24T03:41:21.027Z,12.18
2022-09-24T03:42:21.020Z,12.17
2022-09-24T03:43:21.045Z,12.17
2022-09-24T03:44:20.992Z,12.14
2022-09-24T03:45:20.985Z,12.15
2022-09-24T03:46:21.051Z,12.14
2022-09-24T03:47:20.964Z,12.18
2022-09-24T03:48:20.965Z,12.15
2022-09-24T03:49:20.955Z,12.13
2022-09-24T03:50:20.950Z,12.13
2022-09-24T03:51:20.947Z,12.15
2022-09-24T03:52:20.917Z,12.11
2022-09-24T03:53:20.949Z,12.13
2022-09-24T03:54:20.889Z,12.10
2022-09-24T03:55:20.896Z,12.05
2022-09-24T03:56:20.888Z,12.07
2022-09-24T03:57:20.858Z,12.05
2022-09-24T03:58:20.859Z,12.03
2022-09-24T03:59:20.872Z,12.03
2022-09-24T04:00:20.835Z,12.03
2022-09-24T04:01:20.919Z,12.04
2022-09-24T04:02:20.791Z,12.07
2022-09-24T04:03:20.837Z,12.07
2022-09-24T04:04:20.823Z,12.05
2022-09-24T04:05:20.773Z,12.07
2022-09-24T04:06:25.489Z,12.05
2022-09-24T04:07:21.752Z,12.05
2022-09-24T04:08:20.733Z,12.05
2022-09-24T04:09:20.741Z,12.03
2022-09-24T04:10:20.731Z,11.99
2022-09-24T04:11:20.703Z,11.96
2022-09-24T04:12:20.689Z,11.97
2022-09-24T04:13:20.783Z,11.97
2022-09-24T04:14:20.696Z,12.00
2022-09-24T04:15:20.666Z,12.03
2022-09-24T04:16:20.726Z,12.03
2022-09-24T04:17:20.623Z,12.04
2022-09-24T04:18:20.657Z,12.04
2022-09-24T04:19:20.655Z,12.05
2022-09-24T04:20:20.651Z,12.04
2022-09-24T04:21:20.649Z,12.05
2022-09-24T04:22:20.594Z,12.05
2022-09-24T04:23:20.624Z,12.04
2022-09-24T04:24:20.669Z,12.04
2022-09-24T04:25:20.603Z,12.07
2022-09-24T04:26:20.597Z,12.04
2022-09-24T04:27:20.546Z,12.07
2022-09-24T04:28:20.525Z,12.05
2022-09-24T04:29:20.645Z,11.97
2022-09-24T04:30:20.499Z,11.97
2022-09-24T04:31:20.560Z,12.00
2022-09-24T04:32:20.488Z,12.00
2022-09-24T04:33:20.469Z,11.99
2022-09-24T04:34:20.479Z,11.97
2022-09-24T04:35:20.448Z,11.97
2022-09-24T04:36:20.426Z,11.99
2022-09-24T04:37:20.426Z,11.97
2022-09-24T04:38:20.399Z,11.99
2022-09-24T04:39:20.407Z,11.97
2022-09-24T04:40:20.498Z,11.99
2022-09-24T04:41:20.365Z,11.97
2022-09-24T04:42:20.353Z,12.00
2022-09-24T04:43:20.351Z,11.99
2022-09-24T04:44:20.327Z,12.00
2022-09-24T04:45:20.308Z,11.99
2022-09-24T04:46:20.380Z,12.00
2022-09-24T04:47:20.302Z,12.00
2022-09-24T04:48:20.292Z,11.99
2022-09-24T04:49:20.284Z,11.95
2022-09-24T04:50:20.262Z,11.91
2022-09-24T04:51:20.263Z,11.93
2022-09-24T04:52:20.265Z,11.93
2022-09-24T04:53:20.261Z,11.91
2022-09-24T04:54:20.236Z,11.89
2022-09-24T04:55:20.213Z,11.89
2022-09-24T04:56:20.201Z,11.88
2022-09-24T04:57:20.214Z,11.88
2022-09-24T04:58:20.201Z,11.87
2022-09-24T04:59:20.172Z,11.89
2022-09-24T05:00:20.162Z,11.88
2022-09-24T05:01:20.197Z,11.88
2022-09-24T05:02:20.281Z,11.87
2022-09-24T05:03:20.114Z,11.87
2022-09-24T05:04:20.144Z,11.85
2022-09-24T05:05:20.113Z,11.87
2022-09-24T05:06:20.073Z,11.84
2022-09-24T05:07:20.083Z,11.84
2022-09-24T05:08:20.075Z,11.85
2022-09-24T05:09:20.064Z,11.82
2022-09-24T05:10:20.074Z,11.82
2022-09-24T05:11:20.050Z,11.80
2022-09-24T05:12:20.035Z,11.84
2022-09-24T05:13:20.003Z,11.79
2022-09-24T05:14:20.046Z,11.77
2022-09-24T05:15:20.007Z,11.80
2022-09-24T05:16:20.029Z,11.80
2022-09-24T05:17:19.958Z,11.79
2022-09-24T05:18:19.958Z,11.82
2022-09-24T05:19:19.956Z,11.77
2022-09-24T05:20:19.981Z,11.76
2022-09-24T05:21:19.954Z,11.77
2022-09-24T05:22:19.927Z,11.79
2022-09-24T05:23:19.909Z,11.82
2022-09-24T05:24:19.910Z,11.84
2022-09-24T05:25:19.932Z,11.85
2022-09-24T05:26:19.910Z,11.85
2022-09-24T05:27:19.850Z,11.85
2022-09-24T05:28:19.861Z,11.84
2022-09-24T05:29:19.842Z,11.85
2022-09-24T05:30:19.823Z,11.87
2022-09-24T05:31:19.865Z,11.87
2022-09-24T05:32:19.856Z,11.87
2022-09-24T05:33:19.810Z,11.87
2022-09-24T05:34:19.838Z,11.87
2022-09-24T05:35:19.772Z,11.87
2022-09-24T05:36:19.772Z,11.88
2022-09-24T05:37:19.803Z,11.85
2022-09-24T05:38:19.762Z,11.87
2022-09-24T05:39:19.735Z,11.84
2022-09-24T05:40:19.751Z,11.84
2022-09-24T05:41:19.718Z,11.82
2022-09-24T05:42:19.713Z,11.80
2022-09-24T05:43:19.764Z,11.76
2022-09-24T05:44:19.687Z,11.74
2022-09-24T05:45:19.664Z,11.73
2022-09-24T05:46:19.725Z,11.71
2022-09-24T05:47:19.645Z,11.69
2022-09-24T05:48:19.636Z,11.70
2022-09-24T05:49:19.655Z,11.70
2022-09-24T05:50:19.616Z,11.71
2022-09-24T05:51:19.595Z,11.71
2022-09-24T05:52:19.595Z,11.71
2022-09-24T05:53:19.617Z,11.74
2022-09-24T05:54:19.629Z,11.70
2022-09-24T05:55:19.546Z,11.70
2022-09-24T05:56:19.550Z,11.66
2022-09-24T05:57:19.539Z,11.66
2022-09-24T05:58:19.529Z,11.69
2022-09-24T05:59:19.516Z,11.73
2022-09-24T06:00:19.793Z,11.67
2022-09-24T06:01:19.496Z,11.70
2022-09-24T06:02:19.670Z,11.64
2022-09-24T06:03:19.626Z,11.70
2022-09-24T06:04:19.469Z,11.70
2022-09-24T06:05:19.456Z,11.71
2022-09-24T06:06:19.491Z,11.70
2022-09-24T06:07:19.435Z,11.70
2022-09-24T06:08:19.420Z,11.70
2022-09-24T06:09:19.398Z,11.71
2022-09-24T06:10:19.397Z,11.71
2022-09-24T06:11:19.442Z,11.70
2022-09-24T06:12:19.371Z,11.71
2022-09-24T06:13:19.367Z,11.71
2022-09-24T06:14:19.371Z,11.67
2022-09-24T06:15:19.333Z,11.71
2022-09-24T06:16:19.363Z,11.71
2022-09-24T06:17:19.333Z,11.73
2022-09-24T06:18:19.313Z,11.73
2022-09-24T06:19:19.304Z,11.79
2022-09-24T06:20:19.285Z,11.79
2022-09-24T06:21:19.265Z,11.79
2022-09-24T06:22:19.332Z,11.80
2022-09-24T06:23:19.255Z,11.82
2022-09-24T06:24:19.255Z,11.82
2022-09-24T06:25:19.317Z,11.79
2022-09-24T06:26:19.563Z,11.76
2022-09-24T06:27:19.331Z,11.74
2022-09-24T06:28:19.364Z,11.76
2022-09-24T06:29:19.193Z,11.76
2022-09-24T06:30:19.184Z,11.76
2022-09-24T06:31:19.425Z,11.77
2022-09-24T06:32:19.145Z,11.77
2022-09-24T06:33:19.156Z,11.82
2022-09-24T06:34:19.137Z,11.77
2022-09-24T06:35:19.248Z,11.79
2022-09-24T06:36:19.107Z,11.80
2022-09-24T06:37:19.108Z,11.82
2022-09-24T06:38:19.079Z,11.82
2022-09-24T06:39:19.210Z,11.87
2022-09-24T06:40:19.152Z,11.82
2022-09-24T06:41:19.058Z,11.82
2022-09-24T06:42:19.039Z,11.82
2022-09-24T06:43:19.037Z,11.77
2022-09-24T06:44:19.233Z,11.77
2022-09-24T06:45:19.023Z,11.82
2022-09-24T06:46:19.021Z,11.80
2022-09-24T06:47:19.002Z,11.80
2022-09-24T06:48:18.972Z,11.82
2022-09-24T06:49:18.989Z,11.79
2022-09-24T06:50:18.970Z,11.82
2022-09-24T06:51:18.974Z,11.80
2022-09-24T06:52:18.938Z,11.82
2022-09-24T06:53:18.930Z,11.80
2022-09-24T06:54:18.961Z,11.82
2022-09-24T06:55:18.914Z,11.84
2022-09-24T06:56:18.903Z,11.84
2022-09-24T06:57:18.889Z,11.88
2022-09-24T06:58:18.874Z,11.89
2022-09-24T06:59:18.860Z,11.95
2022-09-24T07:00:18.875Z,11.91
2022-09-24T07:01:18.865Z,11.96
2022-09-24T07:02:18.858Z,11.93
2022-09-24T07:03:18.821Z,11.91
2022-09-24T07:04:18.834Z,11.91
2022-09-24T07:05:18.802Z,11.93
2022-09-24T07:06:18.776Z,11.96
2022-09-24T07:07:18.766Z,11.97
2022-09-24T07:08:18.755Z,12.00
2022-09-24T07:09:18.786Z,12.00
2022-09-24T07:10:18.814Z,11.97
2022-09-24T07:11:18.736Z,12.00
2022-09-24T07:12:18.715Z,11.99
2022-09-24T07:13:18.703Z,12.05
2022-09-24T07:14:18.735Z,12.04
2022-09-24T07:15:18.673Z,12.05
2022-09-24T07:16:18.703Z,12.08
2022-09-24T07:17:18.672Z,12.07
2022-09-24T07:18:18.647Z,12.07
2022-09-24T07:19:18.666Z,12.11
2022-09-24T07:20:18.686Z,12.15
2022-09-24T07:21:18.654Z,12.11
2022-09-24T07:22:18.618Z,12.14
2022-09-24T07:23:18.622Z,12.18
2022-09-24T07:24:18.588Z,12.15
2022-09-24T07:25:18.649Z,12.18
2022-09-24T07:26:18.558Z,12.21
2022-09-24T07:27:18.549Z,12.21
2022-09-24T07:28:18.541Z,12.25
2022-09-24T07:29:18.598Z,12.28
2022-09-24T07:30:18.520Z,12.29
2022-09-24T07:31:18.588Z,12.29
2022-09-24T07:32:18.503Z,12.32
2022-09-24T07:33:18.541Z,12.36
2022-09-24T07:34:18.481Z,12.38
2022-09-24T07:35:18.479Z,12.43
2022-09-24T07:36:18.486Z,12.46
2022-09-24T07:37:18.454Z,12.44
2022-09-24T07:38:18.469Z,12.46
2022-09-24T07:39:18.425Z,12.46
2022-09-24T07:40:18.478Z,12.46
2022-09-24T07:41:18.396Z,12.54
2022-09-24T07:42:18.396Z,12.53
2022-09-24T07:43:18.373Z,12.50
2022-09-24T07:44:18.402Z,12.51
2022-09-24T07:45:18.366Z,12.51
2022-09-24T07:46:18.389Z,12.51
2022-09-24T07:47:18.353Z,12.53
2022-09-24T07:48:18.322Z,12.55
2022-09-24T07:49:18.406Z,12.59
2022-09-24T07:50:18.342Z,12.61
2022-09-24T07:51:18.294Z,12.61
2022-09-24T07:52:18.303Z,12.62
2022-09-24T07:53:18.268Z,12.62
2022-09-24T07:54:18.417Z,12.63
2022-09-24T07:55:18.312Z,12.66
2022-09-24T07:56:18.247Z,12.63
2022-09-24T07:57:18.224Z,12.71
2022-09-24T07:58:18.209Z,12.71
2022-09-24T07:59:18.203Z,12.71
2022-09-24T08:00:18.194Z,12.76
2022-09-24T08:01:18.286Z,12.73
2022-09-24T08:02:18.179Z,12.76
2022-09-24T08:03:18.193Z,12.76
2022-09-24T08:04:18.203Z,12.79
2022-09-24T08:05:18.188Z,12.80
2022-09-24T08:06:18.128Z,12.80
2022-09-24T08:07:18.152Z,12.83
2022-09-24T08:08:18.099Z,12.81
2022-09-24T08:09:18.107Z,12.83
2022-09-24T08:10:18.076Z,12.86
2022-09-24T08:11:18.121Z,12.84
2022-09-24T08:12:18.117Z,12.86
2022-09-24T08:13:18.095Z,12.87
2022-09-24T08:14:18.112Z,12.87
2022-09-24T08:15:18.115Z,12.91
2022-09-24T08:16:18.151Z,12.95
2022-09-24T08:17:18.070Z,12.96
2022-09-24T08:18:18.059Z,12.98
2022-09-24T08:19:18.049Z,13.02
2022-09-24T08:20:18.010Z,13.06
2022-09-24T08:21:18.083Z,13.02
2022-09-24T08:22:17.974Z,13.02
2022-09-24T08:23:18.002Z,13.01
2022-09-24T08:24:17.960Z,13.04
2022-09-24T08:25:17.961Z,13.05
2022-09-24T08:26:18.020Z,13.06
2022-09-24T08:27:17.974Z,13.08
2022-09-24T08:28:17.895Z,13.08
2022-09-24T08:29:17.882Z,13.14
2022-09-24T08:30:17.865Z,13.16
2022-09-24T08:31:17.927Z,13.17
2022-09-24T08:32:17.878Z,13.19
2022-09-24T08:33:17.825Z,13.17
2022-09-24T08:34:17.912Z,13.19
2022-09-24T08:35:17.814Z,13.23
2022-09-24T08:36:17.801Z,13.24
2022-09-24T08:37:17.774Z,13.27
2022-09-24T08:38:17.803Z,13.30
2022-09-24T08:39:17.811Z,13.30
2022-09-24T08:40:17.847Z,13.36
2022-09-24T08:41:17.748Z,13.39
2022-09-24T08:42:17.736Z,13.39
2022-09-24T08:43:17.750Z,13.40
2022-09-24T08:44:17.730Z,13.43
2022-09-24T08:45:17.937Z,13.45
2022-09-24T08:46:17.727Z,13.51
2022-09-24T08:47:17.677Z,13.54
2022-09-24T08:48:17.669Z,13.57
2022-09-24T08:49:17.656Z,13.55
2022-09-24T08:50:17.666Z,13.57
2022-09-24T08:51:17.661Z,13.60
2022-09-24T08:52:17.630Z,13.58
2022-09-24T08:53:17.625Z,13.60
2022-09-24T08:54:17.600Z,13.61
2022-09-24T08:55:17.588Z,13.61
2022-09-24T08:56:17.630Z,13.68
2022-09-24T08:57:17.590Z,13.67
2022-09-24T08:58:17.550Z,13.71
2022-09-24T08:59:17.552Z,13.73
2022-09-24T09:00:17.540Z,13.75
2022-09-24T09:01:17.611Z,13.79
2022-09-24T09:02:17.686Z,13.80
2022-09-24T09:03:17.555Z,13.85
2022-09-24T09:04:17.503Z,13.86
2022-09-24T09:05:17.502Z,13.88
2022-09-24T09:06:17.520Z,13.93
2022-09-24T09:07:17.459Z,13.93
2022-09-24T09:08:46.696Z,13.97
2022-09-24T09:09:18.607Z,13.96
2022-09-24T09:10:17.435Z,13.98
2022-09-24T09:11:17.472Z,13.98
2022-09-24T09:12:17.462Z,14.00
2022-09-24T09:13:17.396Z,14.01
2022-09-24T09:14:17.386Z,14.05
2022-09-24T09:15:17.373Z,14.08
2022-09-24T09:16:17.385Z,14.11
2022-09-24T09:17:17.406Z,14.15
2022-09-24T09:18:17.342Z,14.18
2022-09-24T09:19:17.333Z,14.23
2022-09-24T09:20:17.402Z,14.23
2022-09-24T09:21:17.313Z,14.28
2022-09-24T09:22:17.315Z,14.30
2022-09-24T09:23:17.298Z,14.34
2022-09-24T09:24:17.278Z,14.38
2022-09-24T09:25:17.256Z,14.41
2022-09-24T09:26:17.257Z,14.40
2022-09-24T09:27:17.267Z,14.41
2022-09-24T09:28:17.239Z,14.41
2022-09-24T09:29:17.238Z,14.48
2022-09-24T09:30:17.285Z,14.55
2022-09-24T09:31:17.301Z,14.55
2022-09-24T09:32:17.545Z,14.59
2022-09-24T09:33:17.180Z,14.59
2022-09-24T09:34:17.170Z,14.59
2022-09-24T09:35:17.158Z,14.61
2022-09-24T09:36:17.149Z,14.63
2022-09-24T09:37:19.880Z,14.61
2022-09-24T09:38:18.133Z,14.63
2022-09-24T09:39:17.109Z,14.63
2022-09-24T09:40:17.272Z,14.63
2022-09-24T09:41:17.074Z,14.66
2022-09-24T09:42:17.083Z,14.66
2022-09-24T09:43:17.113Z,14.58
2022-09-24T09:44:17.074Z,14.59
2022-09-24T09:45:17.063Z,14.61
2022-09-24T09:46:17.104Z,14.69
2022-09-24T09:47:17.037Z,14.77
2022-09-24T09:48:17.071Z,14.82
2022-09-24T09:49:17.013Z,14.85
2022-09-24T09:50:16.991Z,14.90
2022-09-24T09:51:21.377Z,14.89
2022-09-24T09:52:17.972Z,14.92
2022-09-24T09:53:17.285Z,14.92
2022-09-24T09:54:17.010Z,14.96
2022-09-24T09:55:16.960Z,14.90
2022-09-24T09:56:16.929Z,14.92
2022-09-24T09:57:16.938Z,14.95
2022-09-24T09:58:16.899Z,14.99
2022-09-24T09:59:16.945Z,15.01
2022-09-24T10:00:16.882Z,15.05
2022-09-24T10:01:16.875Z,15.03
2022-09-24T10:02:16.958Z,15.03
2022-09-24T10:03:16.901Z,15.03
2022-09-24T10:04:16.856Z,14.99
2022-09-24T10:05:19.359Z,14.99
2022-09-24T10:06:16.816Z,15.04
2022-09-24T10:07:16.812Z,15.05
2022-09-24T10:08:16.785Z,15.07
2022-09-24T10:09:16.829Z,15.07
2022-09-24T10:10:16.775Z,15.07
2022-09-24T10:11:16.757Z,15.04
2022-09-24T10:12:16.754Z,15.04
2022-09-24T10:13:16.738Z,15.03
2022-09-24T10:14:16.714Z,15.05
2022-09-24T10:15:16.777Z,15.10
2022-09-24T10:16:16.758Z,15.11
2022-09-24T10:17:16.745Z,15.17
2022-09-24T10:18:16.710Z,15.19
2022-09-24T10:19:16.703Z,15.22
2022-09-24T10:20:16.671Z,15.20
2022-09-24T10:21:16.653Z,15.26
2022-09-24T10:22:16.691Z,15.29
2022-09-24T10:23:16.638Z,15.36
2022-09-24T10:24:16.694Z,15.45
2022-09-24T10:25:16.615Z,15.51
2022-09-24T10:26:16.707Z,15.54
2022-09-24T10:27:16.633Z,15.56
2022-09-24T10:28:16.572Z,15.58
2022-09-24T10:29:16.562Z,15.59
2022-09-24T10:30:16.555Z,15.59
2022-09-24T10:31:16.591Z,15.59
2022-09-24T10:32:16.534Z,15.63
2022-09-24T10:33:16.660Z,15.66
2022-09-24T10:34:16.519Z,15.72
2022-09-24T10:35:16.502Z,15.78
2022-09-24T10:36:16.484Z,15.81
2022-09-24T10:37:16.476Z,15.87
2022-09-24T10:38:16.483Z,15.88
2022-09-24T10:39:16.497Z,15.93
2022-09-24T10:40:16.548Z,15.91
2022-09-24T10:41:16.457Z,15.88
2022-09-24T10:42:16.415Z,16.02
2022-09-24T10:43:16.419Z,16.06
2022-09-24T10:44:16.412Z,16.09
2022-09-24T10:45:16.403Z,16.08
2022-09-24T10:46:16.481Z,16.08
2022-09-24T10:47:16.376Z,16.09
2022-09-24T10:48:16.374Z,16.13
2022-09-24T10:49:16.357Z,16.18
2022-09-24T10:50:16.459Z,16.22
2022-09-24T10:51:16.336Z,16.24
2022-09-24T10:52:16.409Z,16.25
2022-09-24T10:53:16.317Z,16.26
2022-09-24T10:54:16.318Z,16.21
2022-09-24T10:55:16.289Z,16.17
2022-09-24T10:56:16.351Z,16.17
2022-09-24T10:57:16.307Z,16.14
2022-09-24T10:58:16.325Z,16.18
2022-09-24T10:59:16.332Z,16.22
2022-09-24T11:00:16.239Z,16.33
2022-09-24T11:01:16.334Z,16.36
2022-09-24T11:02:16.415Z,16.37
2022-09-24T11:03:16.352Z,16.39
2022-09-24T11:04:16.412Z,16.42
2022-09-24T11:05:16.231Z,16.37
2022-09-24T11:06:16.221Z,16.40
2022-09-24T11:07:16.271Z,16.40
2022-09-24T11:08:16.165Z,16.44
2022-09-24T11:09:16.133Z,16.44
2022-09-24T11:10:16.146Z,16.46
2022-09-24T11:11:16.197Z,16.46
2022-09-24T11:12:16.203Z,16.44
2022-09-24T11:13:16.111Z,16.46
2022-09-24T11:14:16.084Z,16.44
2022-09-24T11:15:16.139Z,16.44
2022-09-24T11:16:16.093Z,16.44
2022-09-24T11:17:16.052Z,16.47
2022-09-24T11:18:16.061Z,16.52
2022-09-24T11:19:16.045Z,16.57
2022-09-24T11:20:16.005Z,16.57
2022-09-24T11:21:16.005Z,16.61
2022-09-24T11:22:16.006Z,16.59
2022-09-24T11:23:16.026Z,16.59
2022-09-24T11:24:15.968Z,16.61
2022-09-24T11:25:15.963Z,16.61
2022-09-24T11:26:15.945Z,16.61
2022-09-24T11:27:15.935Z,16.64
2022-09-24T11:28:15.944Z,16.64
2022-09-24T11:29:15.965Z,16.67
2022-09-24T11:30:15.905Z,16.67
2022-09-24T11:31:15.948Z,16.70
2022-09-24T11:32:15.879Z,16.76
2022-09-24T11:33:20.681Z,16.82
2022-09-24T11:34:16.924Z,16.84
2022-09-24T11:35:15.853Z,16.88
2022-09-24T11:36:15.840Z,16.84
2022-09-24T11:37:15.828Z,16.80
2022-09-24T11:38:15.812Z,16.82
2022-09-24T11:39:15.800Z,16.82
2022-09-24T11:40:15.846Z,16.83
2022-09-24T11:41:15.798Z,16.87
2022-09-24T11:42:15.782Z,16.87
2022-09-24T11:43:15.776Z,16.90
2022-09-24T11:44:15.763Z,16.94
2022-09-24T11:45:15.860Z,16.94
2022-09-24T11:46:15.761Z,16.95
2022-09-24T11:47:15.740Z,16.90
2022-09-24T11:48:15.702Z,16.90
2022-09-24T11:49:15.712Z,16.88
2022-09-24T11:50:15.691Z,16.92
2022-09-24T11:51:15.723Z,17.02
2022-09-24T11:52:15.665Z,17.01
2022-09-24T11:53:15.675Z,17.06
2022-09-24T11:54:15.643Z,17.10
2022-09-24T11:55:15.742Z,17.07
2022-09-24T11:56:15.627Z,17.04
2022-09-24T11:57:15.654Z,17.02
2022-09-24T11:58:15.595Z,17.01
2022-09-24T11:59:15.597Z,16.98
2022-09-24T12:00:15.623Z,16.98
2022-09-24T12:01:15.564Z,16.99
2022-09-24T12:02:15.624Z,16.98
2022-09-24T12:03:15.632Z,17.02
2022-09-24T12:04:15.528Z,17.07
2022-09-24T12:05:15.578Z,17.12
2022-09-24T12:06:15.507Z,17.13
2022-09-24T12:07:15.500Z,17.17
2022-09-24T12:08:15.496Z,17.20
2022-09-24T12:09:15.475Z,17.22
2022-09-24T12:10:15.466Z,17.22
2022-09-24T12:11:15.508Z,17.22
2022-09-24T12:12:15.437Z,17.24
2022-09-24T12:13:15.441Z,17.25
2022-09-24T12:14:15.471Z,17.22
2022-09-24T12:15:15.598Z,17.22
2022-09-24T12:16:15.429Z,17.24
2022-09-24T12:17:15.389Z,17.27
2022-09-24T12:18:15.477Z,17.27
2022-09-24T12:19:15.599Z,17.19
2022-09-24T12:20:15.484Z,17.14
2022-09-24T12:21:15.340Z,17.09
2022-09-24T12:22:15.331Z,17.04
2022-09-24T12:23:15.331Z,17.04
2022-09-24T12:24:15.476Z,17.04
2022-09-24T12:25:15.403Z,17.06
2022-09-24T12:26:15.484Z,17.10
2022-09-24T12:27:15.283Z,17.09
2022-09-24T12:28:15.271Z,17.12
2022-09-24T12:29:15.361Z,17.16
2022-09-24T12:30:15.288Z,17.17
2022-09-24T12:31:15.358Z,17.17
2022-09-24T12:32:15.233Z,17.22
2022-09-24T12:33:15.223Z,17.19
2022-09-24T12:34:15.215Z,17.19
2022-09-24T12:35:15.234Z,17.22
2022-09-24T12:36:15.231Z,17.25
2022-09-24T12:37:15.194Z,17.31
2022-09-24T12:38:15.163Z,17.34
2022-09-24T12:39:15.145Z,17.38
2022-09-24T12:40:15.192Z,17.46
2022-09-24T12:41:15.137Z,17.53
2022-09-24T12:42:15.165Z,17.59
2022-09-24T12:43:15.115Z,17.65
2022-09-24T12:44:19.632Z,17.71
2022-09-24T12:45:16.104Z,17.78
2022-09-24T12:46:15.116Z,17.87
2022-09-24T12:47:15.080Z,17.94
2022-09-24T12:48:15.977Z,17.94
2022-09-24T12:49:15.038Z,17.94
2022-09-24T12:50:15.044Z,17.91
2022-09-24T12:51:15.039Z,17.88
2022-09-24T12:52:15.020Z,17.81